SDM6471 ULLI-UNOO
Flight info
| Callsign | SDM6471 |
|---|---|
| Flight time | 3h 14m |
| Altitude | 35000 |
| Route | KERIS1B KERIS L255 DOKOD M61 AGNOG/K0826F370 M61 SUMOM P983 TINRI A305 LUKAS B236 OKETI B812 MANUG MANU6B |
| Aircraft | B738/M-SDE2E3FGHIRWXY/LB1 |
Departure
| Time | 2026-05-06 14:22 |
|---|---|
| Airport | Pulkovo Airport (ULLI) |
Arrival
| Time | 2026-05-06 17:36 |
|---|---|
| Airport | Omsk Central Airport (UNOO) |
| Time | Latitude | Longitude | Altitude | Speed | Heading |
|---|---|---|---|---|---|
| 2026-05-06 14:00 | 59.80111 | 30.26480 | 80 ft | 0 kts | 287° |
| 2026-05-06 14:16 | 59.80111 | 30.26479 | 84 ft | 0 kts | 287° |
| 2026-05-06 14:16 | 59.80116 | 30.26443 | 85 ft | 6 kts | 286° |
| 2026-05-06 14:16 | 59.80146 | 30.26361 | 84 ft | 10 kts | 351° |
| 2026-05-06 14:17 | 59.80225 | 30.26397 | 80 ft | 14 kts | 16° |
| 2026-05-06 14:17 | 59.80332 | 30.26449 | 85 ft | 18 kts | 5° |
| 2026-05-06 14:17 | 59.80436 | 30.26520 | 90 ft | 15 kts | 57° |
| 2026-05-06 14:17 | 59.80414 | 30.26736 | 80 ft | 18 kts | 107° |
| 2026-05-06 14:18 | 59.80375 | 30.27003 | 87 ft | 22 kts | 107° |
| 2026-05-06 14:18 | 59.80328 | 30.27313 | 90 ft | 24 kts | 106° |
| 2026-05-06 14:18 | 59.80279 | 30.27646 | 79 ft | 25 kts | 107° |
| 2026-05-06 14:18 | 59.80240 | 30.27929 | 71 ft | 19 kts | 120° |
| 2026-05-06 14:19 | 59.80198 | 30.28185 | 78 ft | 20 kts | 104° |
| 2026-05-06 14:19 | 59.80155 | 30.28472 | 71 ft | 23 kts | 107° |
| 2026-05-06 14:19 | 59.80107 | 30.28791 | 77 ft | 25 kts | 108° |
| 2026-05-06 14:19 | 59.80058 | 30.29118 | 77 ft | 24 kts | 106° |
| 2026-05-06 14:20 | 59.80013 | 30.29421 | 68 ft | 23 kts | 106° |
| 2026-05-06 14:20 | 59.79968 | 30.29717 | 75 ft | 22 kts | 108° |
| 2026-05-06 14:20 | 59.79941 | 30.30004 | 75 ft | 21 kts | 71° |
| 2026-05-06 14:20 | 59.80033 | 30.30227 | 67 ft | 21 kts | 47° |
| 2026-05-06 14:21 | 59.80122 | 30.30231 | 74 ft | 12 kts | 292° |
| 2026-05-06 14:21 | 59.80157 | 30.29994 | 71 ft | 41 kts | 288° |
| 2026-05-06 14:21 | 59.80313 | 30.28954 | 75 ft | 111 kts | 286° |
| 2026-05-06 14:21 | 59.80588 | 30.27094 | 89 ft | 166 kts | 286° |
| 2026-05-06 14:22 | 59.80899 | 30.25033 | 394 ft | 187 kts | 288° |
| 2026-05-06 14:22 | 59.81308 | 30.22436 | 934 ft | 203 kts | 290° |
| 2026-05-06 14:22 | 59.81746 | 30.19691 | 1453 ft | 216 kts | 289° |
| 2026-05-06 14:22 | 59.82218 | 30.16731 | 1926 ft | 229 kts | 288° |
| 2026-05-06 14:23 | 59.82634 | 30.13732 | 2883 ft | 219 kts | 286° |
| 2026-05-06 14:23 | 59.83033 | 30.10825 | 3752 ft | 216 kts | 285° |
| 2026-05-06 14:23 | 59.83444 | 30.07904 | 4408 ft | 221 kts | 285° |
| 2026-05-06 14:23 | 59.83871 | 30.04948 | 5106 ft | 224 kts | 286° |
| 2026-05-06 14:24 | 59.84410 | 30.02015 | 5741 ft | 229 kts | 303° |
| 2026-05-06 14:24 | 59.85564 | 29.99900 | 6397 ft | 233 kts | 333° |
| 2026-05-06 14:24 | 59.86063 | 29.99496 | 6601 ft | 236 kts | 343° |
| 2026-05-06 14:25 | 59.87380 | 29.99273 | 7111 ft | 241 kts | 5° |
| 2026-05-06 14:25 | 59.88850 | 29.99902 | 7709 ft | 244 kts | 13° |
| 2026-05-06 14:25 | 59.90488 | 30.00869 | 8343 ft | 247 kts | 14° |
| 2026-05-06 14:26 | 59.92100 | 30.02214 | 8966 ft | 253 kts | 34° |
| 2026-05-06 14:26 | 59.93240 | 30.04863 | 9552 ft | 261 kts | 63° |
| 2026-05-06 14:26 | 59.93586 | 30.08450 | 9967 ft | 275 kts | 97° |
| 2026-05-06 14:26 | 59.93125 | 30.12218 | 10431 ft | 282 kts | 107° |
| 2026-05-06 14:27 | 59.92540 | 30.15977 | 10951 ft | 288 kts | 108° |
| 2026-05-06 14:27 | 59.91901 | 30.19817 | 11391 ft | 298 kts | 114° |
| 2026-05-06 14:27 | 59.91028 | 30.23732 | 11533 ft | 319 kts | 118° |
| 2026-05-06 14:27 | 59.90051 | 30.27857 | 11711 ft | 339 kts | 118° |
| 2026-05-06 14:28 | 59.89043 | 30.32276 | 12106 ft | 352 kts | 113° |
| 2026-05-06 14:28 | 59.88536 | 30.37150 | 12391 ft | 371 kts | 95° |
| 2026-05-06 14:28 | 59.88405 | 30.42415 | 12548 ft | 390 kts | 92° |
| 2026-05-06 14:28 | 59.88303 | 30.47921 | 12887 ft | 402 kts | 93° |
| 2026-05-06 14:29 | 59.88180 | 30.53600 | 13394 ft | 409 kts | 93° |
| 2026-05-06 14:29 | 59.88030 | 30.59281 | 13963 ft | 413 kts | 94° |
| 2026-05-06 14:29 | 59.87915 | 30.63128 | 14314 ft | 416 kts | 95° |
| 2026-05-06 14:29 | 59.87672 | 30.70828 | 15026 ft | 422 kts | 95° |
| 2026-05-06 14:30 | 59.87545 | 30.74776 | 15383 ft | 425 kts | 95° |
| 2026-05-06 14:30 | 59.87354 | 30.80694 | 15894 ft | 431 kts | 95° |
| 2026-05-06 14:30 | 59.87160 | 30.86684 | 16388 ft | 436 kts | 95° |
| 2026-05-06 14:30 | 59.86961 | 30.92718 | 16886 ft | 440 kts | 96° |
| 2026-05-06 14:31 | 59.86758 | 30.98831 | 17356 ft | 445 kts | 96° |
| 2026-05-06 14:31 | 59.86547 | 31.05088 | 17850 ft | 449 kts | 96° |
| 2026-05-06 14:31 | 59.86334 | 31.11326 | 18317 ft | 454 kts | 96° |
| 2026-05-06 14:31 | 59.86116 | 31.17628 | 18780 ft | 458 kts | 96° |
| 2026-05-06 14:32 | 59.85893 | 31.23996 | 19237 ft | 461 kts | 96° |
| 2026-05-06 14:32 | 59.85664 | 31.30437 | 19711 ft | 465 kts | 96° |
| 2026-05-06 14:32 | 59.85429 | 31.36968 | 20151 ft | 469 kts | 96° |
| 2026-05-06 14:32 | 59.85194 | 31.43375 | 20573 ft | 473 kts | 96° |
| 2026-05-06 14:33 | 59.84948 | 31.50028 | 20997 ft | 476 kts | 96° |
| 2026-05-06 14:33 | 59.84701 | 31.56604 | 21390 ft | 480 kts | 96° |
| 2026-05-06 14:33 | 59.84451 | 31.63177 | 21784 ft | 484 kts | 97° |
| 2026-05-06 14:33 | 59.84189 | 31.69965 | 22165 ft | 488 kts | 97° |
| 2026-05-06 14:34 | 59.83925 | 31.76722 | 22566 ft | 490 kts | 97° |
| 2026-05-06 14:34 | 59.83661 | 31.83414 | 22926 ft | 494 kts | 97° |
| 2026-05-06 14:34 | 59.83387 | 31.90254 | 23284 ft | 497 kts | 97° |
| 2026-05-06 14:34 | 59.83107 | 31.97120 | 23615 ft | 501 kts | 97° |
| 2026-05-06 14:35 | 59.82821 | 32.04053 | 23968 ft | 504 kts | 97° |
| 2026-05-06 14:35 | 59.82531 | 32.11017 | 24308 ft | 507 kts | 97° |
| 2026-05-06 14:35 | 59.82235 | 32.18023 | 24625 ft | 510 kts | 97° |
| 2026-05-06 14:35 | 59.81935 | 32.25064 | 24944 ft | 513 kts | 97° |
| 2026-05-06 14:36 | 59.81630 | 32.32139 | 25231 ft | 517 kts | 97° |
| 2026-05-06 14:36 | 59.81379 | 32.39282 | 25545 ft | 520 kts | 94° |
| 2026-05-06 14:36 | 59.81242 | 32.46489 | 25877 ft | 522 kts | 93° |
| 2026-05-06 14:36 | 59.81163 | 32.53711 | 26189 ft | 524 kts | 92° |
| 2026-05-06 14:37 | 59.81099 | 32.60963 | 26482 ft | 527 kts | 92° |
| 2026-05-06 14:37 | 59.81028 | 32.68255 | 26784 ft | 528 kts | 92° |
| 2026-05-06 14:37 | 59.80940 | 32.75562 | 27082 ft | 530 kts | 92° |
| 2026-05-06 14:37 | 59.80836 | 32.82900 | 27389 ft | 531 kts | 92° |
| 2026-05-06 14:38 | 59.80718 | 32.90236 | 27690 ft | 533 kts | 92° |
| 2026-05-06 14:38 | 59.80589 | 32.97609 | 27964 ft | 534 kts | 93° |
| 2026-05-06 14:38 | 59.80455 | 33.04903 | 28214 ft | 536 kts | 92° |
| 2026-05-06 14:38 | 59.80314 | 33.12319 | 28485 ft | 537 kts | 92° |
| 2026-05-06 14:39 | 59.80171 | 33.19742 | 28745 ft | 539 kts | 92° |
| 2026-05-06 14:39 | 59.80024 | 33.27186 | 29031 ft | 539 kts | 92° |
| 2026-05-06 14:39 | 59.79873 | 33.34626 | 29394 ft | 537 kts | 92° |
| 2026-05-06 14:39 | 59.79720 | 33.42012 | 29796 ft | 535 kts | 92° |
| 2026-05-06 14:40 | 59.79562 | 33.49390 | 30086 ft | 535 kts | 92° |
| 2026-05-06 14:40 | 59.79401 | 33.56770 | 30374 ft | 534 kts | 93° |
| 2026-05-06 14:40 | 59.79236 | 33.64123 | 30755 ft | 532 kts | 93° |
| 2026-05-06 14:40 | 59.79068 | 33.71429 | 31141 ft | 529 kts | 93° |
| 2026-05-06 14:41 | 59.78897 | 33.78692 | 31549 ft | 525 kts | 94° |
| 2026-05-06 14:41 | 59.78724 | 33.85901 | 31923 ft | 521 kts | 94° |
| 2026-05-06 14:41 | 59.78546 | 33.93099 | 32222 ft | 520 kts | 94° |
| 2026-05-06 14:41 | 59.78365 | 34.00265 | 32466 ft | 520 kts | 94° |
| 2026-05-06 14:42 | 59.78180 | 34.07436 | 32737 ft | 519 kts | 94° |
| 2026-05-06 14:42 | 59.77993 | 34.14564 | 33063 ft | 516 kts | 94° |
| 2026-05-06 14:42 | 59.77802 | 34.21659 | 33399 ft | 513 kts | 95° |
| 2026-05-06 14:42 | 59.77609 | 34.28718 | 33645 ft | 512 kts | 95° |
| 2026-05-06 14:43 | 59.77412 | 34.35768 | 33855 ft | 511 kts | 95° |
| 2026-05-06 14:43 | 59.77211 | 34.42797 | 34090 ft | 510 kts | 95° |
| 2026-05-06 14:43 | 59.77008 | 34.49809 | 34411 ft | 507 kts | 95° |
| 2026-05-06 14:43 | 59.76802 | 34.56785 | 34607 ft | 507 kts | 95° |
| 2026-05-06 14:44 | 59.76593 | 34.63758 | 34743 ft | 507 kts | 95° |
| 2026-05-06 14:44 | 59.76378 | 34.70761 | 34853 ft | 509 kts | 95° |
| 2026-05-06 14:45 | 59.75711 | 34.91807 | 34878 ft | 508 kts | 95° |
| 2026-05-06 14:45 | 59.75252 | 35.05733 | 34892 ft | 504 kts | 96° |
| 2026-05-06 14:46 | 59.74783 | 35.19562 | 34883 ft | 501 kts | 96° |
| 2026-05-06 14:46 | 59.74300 | 35.33304 | 34890 ft | 498 kts | 96° |
| 2026-05-06 14:47 | 59.73799 | 35.46978 | 34894 ft | 496 kts | 96° |
| 2026-05-06 14:47 | 59.73274 | 35.60603 | 34911 ft | 496 kts | 97° |
| 2026-05-06 14:48 | 59.72735 | 35.74251 | 34913 ft | 497 kts | 97° |
| 2026-05-06 14:48 | 59.72183 | 35.87925 | 34918 ft | 499 kts | 97° |
| 2026-05-06 14:49 | 59.71618 | 36.01584 | 34913 ft | 501 kts | 97° |
| 2026-05-06 14:49 | 59.71032 | 36.15395 | 34915 ft | 504 kts | 97° |
| 2026-05-06 14:50 | 59.70430 | 36.29237 | 34912 ft | 505 kts | 97° |
| 2026-05-06 14:50 | 59.69812 | 36.43124 | 34907 ft | 506 kts | 98° |
| 2026-05-06 14:51 | 59.69182 | 36.56986 | 34903 ft | 506 kts | 98° |
| 2026-05-06 14:51 | 59.68535 | 36.70848 | 34908 ft | 505 kts | 98° |
| 2026-05-06 14:52 | 59.67868 | 36.84690 | 34900 ft | 504 kts | 98° |
| 2026-05-06 14:52 | 59.67190 | 36.98472 | 34905 ft | 502 kts | 98° |
| 2026-05-06 14:53 | 59.66502 | 37.12210 | 34905 ft | 500 kts | 98° |
| 2026-05-06 14:53 | 59.65798 | 37.25966 | 34904 ft | 499 kts | 98° |
| 2026-05-06 14:54 | 59.65085 | 37.39610 | 34907 ft | 497 kts | 98° |
| 2026-05-06 14:54 | 59.64367 | 37.53113 | 34907 ft | 496 kts | 98° |
| 2026-05-06 14:55 | 59.63630 | 37.66668 | 34910 ft | 495 kts | 99° |
| 2026-05-06 14:55 | 59.62882 | 37.80218 | 34903 ft | 495 kts | 99° |
| 2026-05-06 14:56 | 59.62117 | 37.93796 | 34911 ft | 495 kts | 99° |
| 2026-05-06 14:56 | 59.61327 | 38.07529 | 34908 ft | 496 kts | 99° |
| 2026-05-06 14:57 | 59.60526 | 38.21201 | 34914 ft | 498 kts | 99° |
| 2026-05-06 14:57 | 59.59850 | 38.32585 | 34913 ft | 499 kts | 99° |
| 2026-05-06 14:58 | 59.59026 | 38.46214 | 34911 ft | 500 kts | 99° |
| 2026-05-06 14:58 | 59.58189 | 38.59833 | 34909 ft | 500 kts | 100° |
| 2026-05-06 14:59 | 59.57338 | 38.73466 | 34904 ft | 501 kts | 100° |
| 2026-05-06 14:59 | 59.56470 | 38.87111 | 34910 ft | 501 kts | 100° |
| 2026-05-06 15:00 | 59.55588 | 39.00742 | 34909 ft | 501 kts | 100° |
| 2026-05-06 15:00 | 59.54694 | 39.14340 | 34903 ft | 500 kts | 100° |
| 2026-05-06 15:01 | 59.53788 | 39.27905 | 34901 ft | 499 kts | 101° |
| 2026-05-06 15:01 | 59.52870 | 39.41431 | 34908 ft | 497 kts | 101° |
| 2026-05-06 15:02 | 59.51940 | 39.54931 | 34903 ft | 497 kts | 101° |
| 2026-05-06 15:02 | 59.50998 | 39.68394 | 34895 ft | 496 kts | 101° |
| 2026-05-06 15:03 | 59.50045 | 39.81842 | 34898 ft | 496 kts | 101° |
| 2026-05-06 15:03 | 59.49335 | 39.95347 | 34899 ft | 497 kts | 96° |
| 2026-05-06 15:04 | 59.48879 | 40.08955 | 34901 ft | 498 kts | 96° |
| 2026-05-06 15:04 | 59.48396 | 40.22536 | 34904 ft | 498 kts | 97° |
| 2026-05-06 15:05 | 59.47852 | 40.36140 | 34857 ft | 499 kts | 97° |
| 2026-05-06 15:05 | 59.47282 | 40.49840 | 34848 ft | 499 kts | 97° |
| 2026-05-06 15:06 | 59.46707 | 40.63408 | 34852 ft | 498 kts | 97° |
| 2026-05-06 15:06 | 59.46116 | 40.77008 | 34854 ft | 498 kts | 98° |
| 2026-05-06 15:07 | 59.45509 | 40.90565 | 34831 ft | 497 kts | 98° |
| 2026-05-06 15:07 | 59.44891 | 41.04086 | 34824 ft | 496 kts | 98° |
| 2026-05-06 15:08 | 59.44261 | 41.17573 | 34822 ft | 494 kts | 97° |
| 2026-05-06 15:08 | 59.43620 | 41.30990 | 34836 ft | 492 kts | 97° |
| 2026-05-06 15:09 | 59.42969 | 41.44359 | 34832 ft | 491 kts | 97° |
| 2026-05-06 15:09 | 59.42305 | 41.57708 | 34835 ft | 490 kts | 98° |
| 2026-05-06 15:10 | 59.41633 | 41.70934 | 34831 ft | 490 kts | 98° |
| 2026-05-06 15:10 | 59.40942 | 41.84251 | 34827 ft | 490 kts | 98° |
| 2026-05-06 15:11 | 59.40238 | 41.97555 | 34824 ft | 490 kts | 98° |
| 2026-05-06 15:11 | 59.39515 | 42.10963 | 34834 ft | 491 kts | 99° |
| 2026-05-06 15:12 | 59.38784 | 42.24297 | 34825 ft | 492 kts | 99° |
| 2026-05-06 15:12 | 59.38032 | 42.37646 | 34824 ft | 492 kts | 99° |
| 2026-05-06 15:13 | 59.37228 | 42.50969 | 34821 ft | 492 kts | 99° |
| 2026-05-06 15:13 | 59.36406 | 42.64279 | 34825 ft | 491 kts | 100° |
| 2026-05-06 15:14 | 59.35576 | 42.77564 | 34828 ft | 490 kts | 100° |
| 2026-05-06 15:14 | 59.34737 | 42.90810 | 34847 ft | 488 kts | 100° |
| 2026-05-06 15:15 | 59.33890 | 43.03992 | 34850 ft | 486 kts | 101° |
| 2026-05-06 15:15 | 59.33036 | 43.17090 | 34849 ft | 484 kts | 101° |
| 2026-05-06 15:16 | 59.32169 | 43.30150 | 34851 ft | 482 kts | 101° |
| 2026-05-06 15:16 | 59.31294 | 43.43142 | 34849 ft | 481 kts | 101° |
| 2026-05-06 15:17 | 59.30407 | 43.56096 | 34851 ft | 479 kts | 101° |
| 2026-05-06 15:17 | 59.29511 | 43.69014 | 34845 ft | 479 kts | 102° |
| 2026-05-06 15:18 | 59.28603 | 43.81912 | 34842 ft | 478 kts | 102° |
| 2026-05-06 15:18 | 59.27683 | 43.94771 | 34832 ft | 478 kts | 102° |
| 2026-05-06 15:19 | 59.26753 | 44.07635 | 34833 ft | 478 kts | 102° |
| 2026-05-06 15:19 | 59.25820 | 44.20519 | 34823 ft | 478 kts | 102° |
| 2026-05-06 15:20 | 59.24965 | 44.33428 | 34831 ft | 479 kts | 102° |
| 2026-05-06 15:20 | 59.24117 | 44.46343 | 34826 ft | 479 kts | 102° |
| 2026-05-06 15:21 | 59.23248 | 44.59231 | 34822 ft | 479 kts | 102° |
| 2026-05-06 15:21 | 59.22358 | 44.72117 | 34818 ft | 479 kts | 102° |
| 2026-05-06 15:22 | 59.21453 | 44.85015 | 34801 ft | 479 kts | 103° |
| 2026-05-06 15:22 | 59.20529 | 44.98002 | 34797 ft | 480 kts | 103° |
| 2026-05-06 15:23 | 59.19599 | 45.10896 | 34785 ft | 480 kts | 103° |
| 2026-05-06 15:23 | 59.18659 | 45.23765 | 34784 ft | 480 kts | 103° |
| 2026-05-06 15:24 | 59.17506 | 45.36545 | 34785 ft | 477 kts | 107° |
| 2026-05-06 15:24 | 59.16074 | 45.49160 | 34788 ft | 476 kts | 108° |
| 2026-05-06 15:25 | 59.14639 | 45.61567 | 34784 ft | 477 kts | 108° |
| 2026-05-06 15:25 | 59.13241 | 45.73876 | 34787 ft | 477 kts | 108° |
| 2026-05-06 15:26 | 59.11810 | 45.86516 | 34789 ft | 478 kts | 108° |
| 2026-05-06 15:26 | 59.10381 | 45.99066 | 34776 ft | 478 kts | 108° |
| 2026-05-06 15:27 | 59.08928 | 46.11684 | 34769 ft | 478 kts | 108° |
| 2026-05-06 15:27 | 59.07463 | 46.24274 | 34780 ft | 478 kts | 109° |
| 2026-05-06 15:28 | 59.05984 | 46.36882 | 34781 ft | 478 kts | 109° |
| 2026-05-06 15:28 | 59.04495 | 46.49459 | 34773 ft | 478 kts | 109° |
| 2026-05-06 15:29 | 59.03238 | 46.59995 | 34778 ft | 478 kts | 109° |
| 2026-05-06 15:29 | 59.01723 | 46.72571 | 34782 ft | 479 kts | 109° |
| 2026-05-06 15:30 | 59.00205 | 46.85068 | 34774 ft | 479 kts | 109° |
| 2026-05-06 15:30 | 58.98667 | 46.97624 | 34779 ft | 479 kts | 109° |
| 2026-05-06 15:31 | 58.97111 | 47.10206 | 34777 ft | 479 kts | 109° |
| 2026-05-06 15:31 | 58.95547 | 47.22757 | 34772 ft | 480 kts | 109° |
| 2026-05-06 15:32 | 58.93178 | 47.41587 | 34778 ft | 479 kts | 109° |
| 2026-05-06 15:32 | 58.91654 | 47.54176 | 34767 ft | 481 kts | 107° |
| 2026-05-06 15:33 | 58.90359 | 47.66883 | 34769 ft | 482 kts | 105° |
| 2026-05-06 15:33 | 58.89067 | 47.79640 | 34770 ft | 482 kts | 106° |
| 2026-05-06 15:34 | 58.87723 | 47.92408 | 34767 ft | 482 kts | 106° |
| 2026-05-06 15:34 | 58.86356 | 48.05092 | 34770 ft | 482 kts | 106° |
| 2026-05-06 15:35 | 58.84979 | 48.17749 | 34770 ft | 481 kts | 105° |
| 2026-05-06 15:35 | 58.83592 | 48.30395 | 34771 ft | 482 kts | 105° |
| 2026-05-06 15:36 | 58.82193 | 48.43045 | 34767 ft | 482 kts | 106° |
| 2026-05-06 15:36 | 58.80783 | 48.55706 | 34769 ft | 483 kts | 105° |
| 2026-05-06 15:37 | 58.79367 | 48.68382 | 34783 ft | 483 kts | 105° |
| 2026-05-06 15:37 | 58.77934 | 48.81092 | 34792 ft | 485 kts | 106° |
| 2026-05-06 15:38 | 58.76463 | 48.93880 | 34784 ft | 486 kts | 106° |
| 2026-05-06 15:38 | 58.74974 | 49.06611 | 34787 ft | 488 kts | 106° |
| 2026-05-06 15:39 | 58.73464 | 49.19464 | 34793 ft | 490 kts | 105° |
| 2026-05-06 15:39 | 58.71955 | 49.32198 | 34789 ft | 492 kts | 105° |
| 2026-05-06 15:40 | 58.70428 | 49.45063 | 34788 ft | 494 kts | 105° |
| 2026-05-06 15:40 | 58.68884 | 49.57970 | 34788 ft | 496 kts | 105° |
| 2026-05-06 15:41 | 58.67323 | 49.70918 | 34785 ft | 498 kts | 105° |
| 2026-05-06 15:41 | 58.65744 | 49.83871 | 34788 ft | 499 kts | 105° |
| 2026-05-06 15:42 | 58.64147 | 49.96844 | 34792 ft | 499 kts | 105° |
| 2026-05-06 15:42 | 58.62539 | 50.09807 | 34793 ft | 499 kts | 105° |
| 2026-05-06 15:43 | 58.60918 | 50.22755 | 34793 ft | 498 kts | 105° |
| 2026-05-06 15:43 | 58.59289 | 50.35658 | 34795 ft | 498 kts | 105° |
| 2026-05-06 15:44 | 58.57651 | 50.48528 | 34797 ft | 497 kts | 105° |
| 2026-05-06 15:44 | 58.55969 | 50.61354 | 34792 ft | 495 kts | 106° |
| 2026-05-06 15:45 | 58.54245 | 50.74118 | 34799 ft | 494 kts | 106° |
| 2026-05-06 15:45 | 58.52520 | 50.86816 | 34796 ft | 493 kts | 106° |
| 2026-05-06 15:46 | 58.50793 | 50.99479 | 34794 ft | 491 kts | 106° |
| 2026-05-06 15:46 | 58.49064 | 51.12080 | 34799 ft | 489 kts | 107° |
| 2026-05-06 15:47 | 58.47325 | 51.24634 | 34798 ft | 488 kts | 106° |
| 2026-05-06 15:47 | 58.45578 | 51.37150 | 34800 ft | 486 kts | 107° |
| 2026-05-06 15:48 | 58.43828 | 51.49599 | 34797 ft | 485 kts | 106° |
| 2026-05-06 15:48 | 58.42070 | 51.62011 | 34798 ft | 483 kts | 106° |
| 2026-05-06 15:49 | 58.40616 | 51.74493 | 34791 ft | 482 kts | 101° |
| 2026-05-06 15:49 | 58.39386 | 51.87064 | 34794 ft | 481 kts | 101° |
| 2026-05-06 15:50 | 58.38108 | 51.99556 | 34797 ft | 480 kts | 102° |
| 2026-05-06 15:50 | 58.36787 | 52.12027 | 34796 ft | 479 kts | 102° |
| 2026-05-06 15:51 | 58.35454 | 52.24454 | 34775 ft | 479 kts | 102° |
| 2026-05-06 15:51 | 58.34114 | 52.36866 | 34771 ft | 479 kts | 102° |
| 2026-05-06 15:52 | 58.32759 | 52.49288 | 34769 ft | 479 kts | 102° |
| 2026-05-06 15:52 | 58.31393 | 52.61692 | 34766 ft | 480 kts | 102° |
| 2026-05-06 15:53 | 58.30015 | 52.74105 | 34769 ft | 480 kts | 103° |
| 2026-05-06 15:53 | 58.28620 | 52.86542 | 34769 ft | 481 kts | 103° |
| 2026-05-06 15:54 | 58.27213 | 52.98975 | 34770 ft | 482 kts | 103° |
| 2026-05-06 15:54 | 58.25789 | 53.11443 | 34771 ft | 483 kts | 103° |
| 2026-05-06 15:55 | 58.24353 | 53.23916 | 34763 ft | 484 kts | 103° |
| 2026-05-06 15:55 | 58.22896 | 53.36423 | 34760 ft | 485 kts | 103° |
| 2026-05-06 15:56 | 58.21437 | 53.48844 | 34758 ft | 485 kts | 103° |
| 2026-05-06 15:56 | 58.19959 | 53.61309 | 34758 ft | 484 kts | 103° |
| 2026-05-06 15:57 | 58.18463 | 53.73814 | 34757 ft | 482 kts | 103° |
| 2026-05-06 15:57 | 58.16974 | 53.86178 | 34754 ft | 480 kts | 103° |
| 2026-05-06 15:58 | 58.15482 | 53.98453 | 34756 ft | 478 kts | 103° |
| 2026-05-06 15:58 | 58.13986 | 54.10684 | 34757 ft | 476 kts | 104° |
| 2026-05-06 15:59 | 58.12489 | 54.22845 | 34759 ft | 473 kts | 104° |
| 2026-05-06 15:59 | 58.10985 | 54.34968 | 34754 ft | 472 kts | 104° |
| 2026-05-06 16:00 | 58.09476 | 54.47031 | 34762 ft | 472 kts | 104° |
| 2026-05-06 16:00 | 58.07952 | 54.59118 | 34760 ft | 473 kts | 104° |
| 2026-05-06 16:01 | 58.06480 | 54.70713 | 34755 ft | 475 kts | 104° |
| 2026-05-06 16:01 | 58.05066 | 54.82917 | 34747 ft | 477 kts | 98° |
| 2026-05-06 16:02 | 58.04352 | 54.93254 | 34758 ft | 478 kts | 96° |
| 2026-05-06 16:02 | 58.03553 | 55.05740 | 34755 ft | 479 kts | 97° |
| 2026-05-06 16:03 | 58.02673 | 55.18202 | 34754 ft | 479 kts | 97° |
| 2026-05-06 16:03 | 58.01762 | 55.30598 | 34741 ft | 473 kts | 97° |
| 2026-05-06 16:04 | 58.00795 | 55.42703 | 34761 ft | 463 kts | 97° |
| 2026-05-06 16:04 | 57.99943 | 55.54728 | 34751 ft | 461 kts | 97° |
| 2026-05-06 16:05 | 57.99097 | 55.66542 | 34759 ft | 459 kts | 97° |
| 2026-05-06 16:05 | 57.98196 | 55.78451 | 34745 ft | 458 kts | 97° |
| 2026-05-06 16:06 | 57.97276 | 55.90374 | 34745 ft | 456 kts | 97° |
| 2026-05-06 16:06 | 57.96359 | 56.02180 | 34750 ft | 455 kts | 97° |
| 2026-05-06 16:07 | 57.95433 | 56.13968 | 34749 ft | 455 kts | 98° |
| 2026-05-06 16:07 | 57.94498 | 56.25753 | 34750 ft | 455 kts | 98° |
| 2026-05-06 16:08 | 57.93556 | 56.37477 | 34753 ft | 456 kts | 98° |
| 2026-05-06 16:08 | 57.92595 | 56.49295 | 34750 ft | 458 kts | 98° |
| 2026-05-06 16:09 | 57.91617 | 56.61172 | 34748 ft | 459 kts | 98° |
| 2026-05-06 16:09 | 57.90627 | 56.73062 | 34752 ft | 461 kts | 98° |
| 2026-05-06 16:10 | 57.89616 | 56.85054 | 34751 ft | 462 kts | 98° |
| 2026-05-06 16:10 | 57.88596 | 56.97015 | 34749 ft | 463 kts | 98° |
| 2026-05-06 16:11 | 57.87572 | 57.08898 | 34748 ft | 464 kts | 98° |
| 2026-05-06 16:11 | 57.86519 | 57.20974 | 34754 ft | 465 kts | 99° |
| 2026-05-06 16:12 | 57.85458 | 57.32979 | 34752 ft | 465 kts | 99° |
| 2026-05-06 16:12 | 57.84388 | 57.44966 | 34765 ft | 466 kts | 99° |
| 2026-05-06 16:13 | 57.83305 | 57.56981 | 34761 ft | 467 kts | 99° |
| 2026-05-06 16:13 | 57.82210 | 57.68995 | 34765 ft | 467 kts | 99° |
| 2026-05-06 16:14 | 57.81104 | 57.80991 | 34773 ft | 468 kts | 99° |
| 2026-05-06 16:14 | 57.79985 | 57.93011 | 34765 ft | 468 kts | 99° |
| 2026-05-06 16:15 | 57.78855 | 58.05023 | 34780 ft | 467 kts | 99° |
| 2026-05-06 16:15 | 57.77719 | 58.17007 | 34776 ft | 467 kts | 99° |
| 2026-05-06 16:16 | 57.76575 | 58.28997 | 34779 ft | 467 kts | 99° |
| 2026-05-06 16:16 | 57.75419 | 58.40973 | 34784 ft | 467 kts | 99° |
| 2026-05-06 16:17 | 57.74256 | 58.52933 | 34787 ft | 467 kts | 100° |
| 2026-05-06 16:17 | 57.73094 | 58.64800 | 34795 ft | 466 kts | 100° |
| 2026-05-06 16:18 | 57.71915 | 58.76732 | 34798 ft | 467 kts | 100° |
| 2026-05-06 16:18 | 57.70722 | 58.88676 | 34807 ft | 466 kts | 101° |
| 2026-05-06 16:19 | 57.69521 | 59.00580 | 34801 ft | 467 kts | 101° |
| 2026-05-06 16:19 | 57.68306 | 59.12502 | 34812 ft | 467 kts | 101° |
| 2026-05-06 16:20 | 57.67077 | 59.24431 | 34818 ft | 467 kts | 101° |
| 2026-05-06 16:20 | 57.65839 | 59.36338 | 34813 ft | 467 kts | 101° |
| 2026-05-06 16:21 | 57.64588 | 59.48253 | 34830 ft | 468 kts | 101° |
| 2026-05-06 16:21 | 57.63324 | 59.60198 | 34841 ft | 468 kts | 101° |
| 2026-05-06 16:22 | 57.62048 | 59.72115 | 34834 ft | 470 kts | 101° |
| 2026-05-06 16:22 | 57.60753 | 59.84087 | 34838 ft | 470 kts | 102° |
| 2026-05-06 16:23 | 57.59448 | 59.96059 | 34846 ft | 471 kts | 102° |
| 2026-05-06 16:23 | 57.58129 | 60.08048 | 34844 ft | 472 kts | 102° |
| 2026-05-06 16:24 | 57.56795 | 60.20048 | 34842 ft | 473 kts | 102° |
| 2026-05-06 16:24 | 57.55449 | 60.32064 | 34845 ft | 474 kts | 102° |
| 2026-05-06 16:25 | 57.54082 | 60.44151 | 34840 ft | 474 kts | 102° |
| 2026-05-06 16:25 | 57.52716 | 60.56137 | 34846 ft | 473 kts | 102° |
| 2026-05-06 16:26 | 57.51827 | 60.68235 | 34864 ft | 472 kts | 93° |
| 2026-05-06 16:26 | 57.51543 | 60.80362 | 34857 ft | 472 kts | 92° |
| 2026-05-06 16:27 | 57.51250 | 60.92636 | 34849 ft | 471 kts | 93° |
| 2026-05-06 16:27 | 57.50895 | 61.04788 | 34849 ft | 471 kts | 94° |
| 2026-05-06 16:28 | 57.50506 | 61.16932 | 34851 ft | 470 kts | 94° |
| 2026-05-06 16:28 | 57.50107 | 61.29071 | 34855 ft | 469 kts | 94° |
| 2026-05-06 16:29 | 57.49698 | 61.41193 | 34863 ft | 469 kts | 94° |
| 2026-05-06 16:29 | 57.49280 | 61.53312 | 34859 ft | 469 kts | 94° |
| 2026-05-06 16:30 | 57.48924 | 61.63379 | 34859 ft | 470 kts | 94° |
| 2026-05-06 16:30 | 57.48408 | 61.77556 | 34849 ft | 470 kts | 95° |
| 2026-05-06 16:31 | 57.47956 | 61.89685 | 34854 ft | 471 kts | 95° |
| 2026-05-06 16:31 | 57.47493 | 62.01831 | 34853 ft | 471 kts | 95° |
| 2026-05-06 16:32 | 57.47019 | 62.13995 | 34851 ft | 472 kts | 95° |
| 2026-05-06 16:32 | 57.46533 | 62.26154 | 34852 ft | 472 kts | 95° |
| 2026-05-06 16:33 | 57.46046 | 62.38263 | 34854 ft | 473 kts | 95° |
| 2026-05-06 16:34 | 57.45291 | 62.56550 | 34852 ft | 473 kts | 95° |
| 2026-05-06 16:34 | 57.44860 | 62.66688 | 34851 ft | 473 kts | 95° |
| 2026-05-06 16:35 | 57.44331 | 62.78869 | 34860 ft | 473 kts | 95° |
| 2026-05-06 16:35 | 57.43698 | 62.93113 | 34860 ft | 473 kts | 95° |
| 2026-05-06 16:36 | 57.43240 | 63.03229 | 34860 ft | 473 kts | 95° |
| 2026-05-06 16:36 | 57.42705 | 63.15403 | 34967 ft | 470 kts | 92° |
| 2026-05-06 16:37 | 57.42334 | 63.27572 | 34892 ft | 472 kts | 96° |
| 2026-05-06 16:37 | 57.41591 | 63.39711 | 34885 ft | 473 kts | 97° |
| 2026-05-06 16:38 | 57.40912 | 63.51835 | 34884 ft | 473 kts | 96° |
| 2026-05-06 16:38 | 57.40307 | 63.63988 | 34880 ft | 474 kts | 96° |
| 2026-05-06 16:39 | 57.39653 | 63.76177 | 34876 ft | 474 kts | 99° |
| 2026-05-06 16:39 | 57.38117 | 63.88033 | 34882 ft | 473 kts | 107° |
| 2026-05-06 16:40 | 57.36371 | 63.99798 | 34880 ft | 474 kts | 107° |
| 2026-05-06 16:40 | 57.34654 | 64.11597 | 34879 ft | 475 kts | 106° |
| 2026-05-06 16:41 | 57.32956 | 64.23422 | 34879 ft | 475 kts | 106° |
| 2026-05-06 16:41 | 57.31252 | 64.35235 | 34884 ft | 476 kts | 106° |
| 2026-05-06 16:42 | 57.29531 | 64.47072 | 34878 ft | 476 kts | 106° |
| 2026-05-06 16:42 | 57.27801 | 64.58853 | 34885 ft | 475 kts | 106° |
| 2026-05-06 16:43 | 57.26058 | 64.70629 | 34887 ft | 475 kts | 106° |
| 2026-05-06 16:43 | 57.24306 | 64.82398 | 34887 ft | 474 kts | 106° |
| 2026-05-06 16:44 | 57.22550 | 64.94117 | 34891 ft | 474 kts | 106° |
| 2026-05-06 16:44 | 57.20783 | 65.05819 | 34887 ft | 473 kts | 107° |
| 2026-05-06 16:45 | 57.19006 | 65.17519 | 34890 ft | 473 kts | 107° |
| 2026-05-06 16:45 | 57.17224 | 65.29166 | 34888 ft | 472 kts | 107° |
| 2026-05-06 16:46 | 57.15014 | 65.40536 | 34895 ft | 470 kts | 114° |
| 2026-05-06 16:46 | 57.12462 | 65.51617 | 34885 ft | 470 kts | 114° |
| 2026-05-06 16:47 | 57.09920 | 65.62702 | 34889 ft | 470 kts | 114° |
| 2026-05-06 16:47 | 57.07413 | 65.73816 | 34890 ft | 470 kts | 114° |
| 2026-05-06 16:48 | 57.04908 | 65.84927 | 34893 ft | 471 kts | 114° |
| 2026-05-06 16:48 | 57.02390 | 65.96023 | 34888 ft | 471 kts | 114° |
| 2026-05-06 16:49 | 56.99863 | 66.07097 | 34886 ft | 471 kts | 114° |
| 2026-05-06 16:49 | 56.97320 | 66.18179 | 34891 ft | 471 kts | 114° |
| 2026-05-06 16:50 | 56.94772 | 66.29243 | 34888 ft | 471 kts | 114° |
| 2026-05-06 16:50 | 56.92214 | 66.40294 | 34889 ft | 471 kts | 114° |
| 2026-05-06 16:51 | 56.89648 | 66.51334 | 34890 ft | 471 kts | 114° |
| 2026-05-06 16:51 | 56.87069 | 66.62373 | 34896 ft | 472 kts | 114° |
| 2026-05-06 16:52 | 56.84485 | 66.73380 | 34900 ft | 472 kts | 114° |
| 2026-05-06 16:52 | 56.81836 | 66.84382 | 34900 ft | 472 kts | 115° |
| 2026-05-06 16:53 | 56.79117 | 66.95290 | 34894 ft | 472 kts | 115° |
| 2026-05-06 16:53 | 56.76384 | 67.06189 | 34903 ft | 473 kts | 115° |
| 2026-05-06 16:54 | 56.73650 | 67.17094 | 34909 ft | 473 kts | 115° |
| 2026-05-06 16:54 | 56.70908 | 67.27997 | 34908 ft | 473 kts | 115° |
| 2026-05-06 16:55 | 56.68159 | 67.38886 | 34909 ft | 474 kts | 115° |
| 2026-05-06 16:55 | 56.65398 | 67.49761 | 34916 ft | 474 kts | 115° |
| 2026-05-06 16:56 | 56.62624 | 67.60635 | 34917 ft | 474 kts | 115° |
| 2026-05-06 16:56 | 56.59839 | 67.71504 | 34923 ft | 474 kts | 115° |
| 2026-05-06 16:57 | 56.57046 | 67.82343 | 34923 ft | 473 kts | 115° |
| 2026-05-06 16:57 | 56.54272 | 67.93063 | 34925 ft | 473 kts | 115° |
| 2026-05-06 16:58 | 56.51452 | 68.03903 | 34933 ft | 472 kts | 116° |
| 2026-05-06 16:58 | 56.48661 | 68.14585 | 34935 ft | 472 kts | 116° |
| 2026-05-06 16:59 | 56.45842 | 68.25316 | 34944 ft | 472 kts | 116° |
| 2026-05-06 16:59 | 56.42995 | 68.36108 | 34945 ft | 472 kts | 116° |
| 2026-05-06 17:00 | 56.40180 | 68.46725 | 34942 ft | 472 kts | 116° |
| 2026-05-06 17:00 | 56.37317 | 68.57479 | 34954 ft | 472 kts | 116° |
| 2026-05-06 17:01 | 56.34465 | 68.68132 | 34954 ft | 472 kts | 116° |
| 2026-05-06 17:01 | 56.31614 | 68.78734 | 34955 ft | 472 kts | 116° |
| 2026-05-06 17:02 | 56.28724 | 68.89435 | 34963 ft | 472 kts | 116° |
| 2026-05-06 17:02 | 56.25842 | 69.00055 | 34963 ft | 472 kts | 116° |
| 2026-05-06 17:03 | 56.22968 | 69.10596 | 34964 ft | 473 kts | 116° |
| 2026-05-06 17:03 | 56.20064 | 69.21203 | 34974 ft | 473 kts | 116° |
| 2026-05-06 17:04 | 56.17154 | 69.31785 | 34980 ft | 473 kts | 116° |
| 2026-05-06 17:04 | 56.14232 | 69.42342 | 34998 ft | 472 kts | 117° |
| 2026-05-06 17:05 | 56.10914 | 69.52486 | 35000 ft | 472 kts | 122° |
| 2026-05-06 17:05 | 56.07531 | 69.62558 | 34981 ft | 471 kts | 118° |
| 2026-05-06 17:06 | 56.04563 | 69.73025 | 34984 ft | 471 kts | 116° |
| 2026-05-06 17:06 | 56.01746 | 69.83349 | 34967 ft | 449 kts | 116° |
| 2026-05-06 17:07 | 55.99002 | 69.93240 | 34984 ft | 442 kts | 116° |
| 2026-05-06 17:07 | 55.97619 | 69.98158 | 34774 ft | 443 kts | 116° |
| 2026-05-06 17:07 | 55.96256 | 70.02978 | 34488 ft | 438 kts | 116° |
| 2026-05-06 17:07 | 55.94890 | 70.07790 | 34098 ft | 434 kts | 116° |
| 2026-05-06 17:08 | 55.93527 | 70.12580 | 33730 ft | 431 kts | 116° |
| 2026-05-06 17:08 | 55.92173 | 70.17329 | 33353 ft | 428 kts | 117° |
| 2026-05-06 17:08 | 55.90827 | 70.22039 | 32969 ft | 426 kts | 117° |
| 2026-05-06 17:08 | 55.89488 | 70.26719 | 32595 ft | 423 kts | 117° |
| 2026-05-06 17:09 | 55.88134 | 70.31443 | 32217 ft | 420 kts | 117° |
| 2026-05-06 17:09 | 55.86807 | 70.36062 | 31829 ft | 418 kts | 117° |
| 2026-05-06 17:09 | 55.85497 | 70.40615 | 31461 ft | 416 kts | 118° |
| 2026-05-06 17:09 | 55.84181 | 70.45178 | 31091 ft | 414 kts | 118° |
| 2026-05-06 17:10 | 55.82869 | 70.49720 | 30717 ft | 411 kts | 118° |
| 2026-05-06 17:10 | 55.81986 | 70.52771 | 30467 ft | 410 kts | 118° |
| 2026-05-06 17:10 | 55.80684 | 70.57263 | 30095 ft | 408 kts | 118° |
| 2026-05-06 17:10 | 55.79387 | 70.61730 | 29729 ft | 406 kts | 118° |
| 2026-05-06 17:11 | 55.78093 | 70.66174 | 29358 ft | 403 kts | 118° |
| 2026-05-06 17:11 | 55.76789 | 70.70648 | 28967 ft | 401 kts | 118° |
| 2026-05-06 17:11 | 55.75509 | 70.75031 | 28589 ft | 399 kts | 118° |
| 2026-05-06 17:11 | 55.74232 | 70.79397 | 28211 ft | 397 kts | 118° |
| 2026-05-06 17:12 | 55.72941 | 70.83798 | 27835 ft | 395 kts | 118° |
| 2026-05-06 17:12 | 55.71674 | 70.88112 | 27450 ft | 393 kts | 118° |
| 2026-05-06 17:12 | 55.70431 | 70.92336 | 27090 ft | 391 kts | 118° |
| 2026-05-06 17:12 | 55.69159 | 70.96650 | 26718 ft | 389 kts | 118° |
| 2026-05-06 17:13 | 55.67910 | 71.00882 | 26348 ft | 387 kts | 118° |
| 2026-05-06 17:13 | 55.66666 | 71.05087 | 25980 ft | 385 kts | 118° |
| 2026-05-06 17:13 | 55.65427 | 71.09269 | 25609 ft | 383 kts | 118° |
| 2026-05-06 17:13 | 55.64195 | 71.13427 | 25248 ft | 381 kts | 118° |
| 2026-05-06 17:14 | 55.62965 | 71.17564 | 24886 ft | 378 kts | 118° |
| 2026-05-06 17:14 | 55.61746 | 71.21665 | 24525 ft | 376 kts | 117° |
| 2026-05-06 17:14 | 55.60688 | 71.25881 | 24162 ft | 374 kts | 111° |
| 2026-05-06 17:14 | 55.59774 | 71.30171 | 23795 ft | 372 kts | 109° |
| 2026-05-06 17:15 | 55.58904 | 71.34471 | 23434 ft | 370 kts | 109° |
| 2026-05-06 17:15 | 55.58045 | 71.38746 | 23078 ft | 368 kts | 109° |
| 2026-05-06 17:15 | 55.57184 | 71.42989 | 22727 ft | 366 kts | 109° |
| 2026-05-06 17:15 | 55.56319 | 71.47199 | 22375 ft | 364 kts | 109° |
| 2026-05-06 17:16 | 55.55450 | 71.51390 | 22028 ft | 362 kts | 110° |
| 2026-05-06 17:16 | 55.54580 | 71.55550 | 21680 ft | 360 kts | 110° |
| 2026-05-06 17:16 | 55.53712 | 71.59675 | 21335 ft | 358 kts | 110° |
| 2026-05-06 17:16 | 55.52845 | 71.63780 | 20993 ft | 356 kts | 110° |
| 2026-05-06 17:17 | 55.51994 | 71.67797 | 20647 ft | 354 kts | 110° |
| 2026-05-06 17:17 | 55.51121 | 71.71911 | 20310 ft | 352 kts | 110° |
| 2026-05-06 17:17 | 55.50263 | 71.75944 | 19972 ft | 350 kts | 110° |
| 2026-05-06 17:17 | 55.49406 | 71.79962 | 19631 ft | 349 kts | 110° |
| 2026-05-06 17:18 | 55.48554 | 71.83954 | 19293 ft | 347 kts | 110° |
| 2026-05-06 17:18 | 55.47705 | 71.87922 | 18960 ft | 345 kts | 110° |
| 2026-05-06 17:18 | 55.46860 | 71.91862 | 18625 ft | 343 kts | 110° |
| 2026-05-06 17:18 | 55.46005 | 71.95842 | 18282 ft | 341 kts | 110° |
| 2026-05-06 17:19 | 55.45165 | 71.99749 | 17953 ft | 340 kts | 110° |
| 2026-05-06 17:19 | 55.44339 | 72.03579 | 17626 ft | 338 kts | 110° |
| 2026-05-06 17:19 | 55.43495 | 72.07483 | 17286 ft | 337 kts | 110° |
| 2026-05-06 17:19 | 55.42662 | 72.11329 | 16955 ft | 335 kts | 110° |
| 2026-05-06 17:20 | 55.41832 | 72.15152 | 16636 ft | 333 kts | 110° |
| 2026-05-06 17:20 | 55.41005 | 72.18959 | 16309 ft | 332 kts | 110° |
| 2026-05-06 17:20 | 55.40180 | 72.22747 | 15988 ft | 330 kts | 110° |
| 2026-05-06 17:20 | 55.39370 | 72.26465 | 15667 ft | 329 kts | 110° |
| 2026-05-06 17:21 | 55.38552 | 72.30208 | 15350 ft | 327 kts | 110° |
| 2026-05-06 17:21 | 55.37725 | 72.33986 | 15022 ft | 325 kts | 111° |
| 2026-05-06 17:21 | 55.36913 | 72.37688 | 14708 ft | 324 kts | 111° |
| 2026-05-06 17:21 | 55.36116 | 72.41319 | 14391 ft | 323 kts | 111° |
| 2026-05-06 17:22 | 55.35296 | 72.45043 | 14064 ft | 321 kts | 111° |
| 2026-05-06 17:22 | 55.34503 | 72.48644 | 13755 ft | 319 kts | 111° |
| 2026-05-06 17:22 | 55.33691 | 72.52320 | 13435 ft | 318 kts | 111° |
| 2026-05-06 17:22 | 55.32892 | 72.55931 | 13121 ft | 316 kts | 111° |
| 2026-05-06 17:23 | 55.32104 | 72.59479 | 12807 ft | 315 kts | 111° |
| 2026-05-06 17:23 | 55.31302 | 72.63098 | 12493 ft | 313 kts | 111° |
| 2026-05-06 17:23 | 55.30518 | 72.66642 | 12185 ft | 311 kts | 111° |
| 2026-05-06 17:23 | 55.29730 | 72.70186 | 11870 ft | 310 kts | 111° |
| 2026-05-06 17:24 | 55.28946 | 72.73698 | 11563 ft | 308 kts | 111° |
| 2026-05-06 17:24 | 55.28167 | 72.77184 | 11255 ft | 307 kts | 111° |
| 2026-05-06 17:24 | 55.27400 | 72.80624 | 10951 ft | 306 kts | 110° |
| 2026-05-06 17:24 | 55.26663 | 72.84115 | 10636 ft | 305 kts | 109° |
| 2026-05-06 17:25 | 55.25939 | 72.87647 | 10332 ft | 304 kts | 109° |
| 2026-05-06 17:25 | 55.25290 | 72.90822 | 10102 ft | 300 kts | 109° |
| 2026-05-06 17:25 | 55.24591 | 72.94225 | 9912 ft | 295 kts | 109° |
| 2026-05-06 17:25 | 55.23897 | 72.97599 | 9607 ft | 293 kts | 109° |
| 2026-05-06 17:26 | 55.23204 | 73.00951 | 9332 ft | 292 kts | 109° |
| 2026-05-06 17:26 | 55.22511 | 73.04292 | 9044 ft | 291 kts | 109° |
| 2026-05-06 17:26 | 55.21820 | 73.07616 | 8762 ft | 290 kts | 109° |
| 2026-05-06 17:26 | 55.21132 | 73.10919 | 8470 ft | 289 kts | 109° |
| 2026-05-06 17:27 | 55.20443 | 73.14223 | 8178 ft | 288 kts | 109° |
| 2026-05-06 17:27 | 55.19738 | 73.17599 | 7887 ft | 287 kts | 109° |
| 2026-05-06 17:27 | 55.19053 | 73.20872 | 7602 ft | 286 kts | 109° |
| 2026-05-06 17:27 | 55.18369 | 73.24131 | 7316 ft | 285 kts | 109° |
| 2026-05-06 17:28 | 55.17687 | 73.27377 | 7033 ft | 284 kts | 109° |
| 2026-05-06 17:28 | 55.17004 | 73.30623 | 6748 ft | 284 kts | 109° |
| 2026-05-06 17:28 | 55.16322 | 73.33858 | 6464 ft | 283 kts | 109° |
| 2026-05-06 17:28 | 55.15640 | 73.37089 | 6155 ft | 283 kts | 109° |
| 2026-05-06 17:29 | 55.14953 | 73.40333 | 5797 ft | 285 kts | 109° |
| 2026-05-06 17:29 | 55.14265 | 73.43579 | 5503 ft | 284 kts | 109° |
| 2026-05-06 17:29 | 55.13581 | 73.46812 | 5214 ft | 283 kts | 109° |
| 2026-05-06 17:29 | 55.12887 | 73.50081 | 4926 ft | 282 kts | 109° |
| 2026-05-06 17:30 | 55.12213 | 73.53244 | 4651 ft | 281 kts | 109° |
| 2026-05-06 17:30 | 55.11524 | 73.56473 | 4369 ft | 280 kts | 109° |
| 2026-05-06 17:30 | 55.10689 | 73.59527 | 4055 ft | 280 kts | 128° |
| 2026-05-06 17:30 | 55.09202 | 73.61595 | 3903 ft | 270 kts | 158° |
| 2026-05-06 17:31 | 55.07420 | 73.62261 | 3789 ft | 258 kts | 183° |
| 2026-05-06 17:31 | 55.05723 | 73.61744 | 3740 ft | 240 kts | 200° |
| 2026-05-06 17:31 | 55.04168 | 73.60905 | 3626 ft | 227 kts | 200° |
| 2026-05-06 17:31 | 55.02710 | 73.60112 | 3540 ft | 213 kts | 200° |
| 2026-05-06 17:32 | 55.01356 | 73.59315 | 3436 ft | 198 kts | 211° |
| 2026-05-06 17:32 | 55.00418 | 73.57739 | 3156 ft | 185 kts | 248° |
| 2026-05-06 17:32 | 55.00083 | 73.55688 | 2953 ft | 168 kts | 258° |
| 2026-05-06 17:32 | 54.99797 | 73.53805 | 2688 ft | 156 kts | 256° |
| 2026-05-06 17:33 | 54.99534 | 73.51960 | 2484 ft | 158 kts | 256° |
| 2026-05-06 17:33 | 54.99277 | 73.50092 | 2274 ft | 160 kts | 255° |
| 2026-05-06 17:33 | 54.99016 | 73.48163 | 2060 ft | 163 kts | 255° |
| 2026-05-06 17:33 | 54.98758 | 73.46253 | 1842 ft | 164 kts | 256° |
| 2026-05-06 17:34 | 54.98494 | 73.44297 | 1624 ft | 163 kts | 257° |
| 2026-05-06 17:34 | 54.98239 | 73.42398 | 1405 ft | 160 kts | 257° |
| 2026-05-06 17:34 | 54.97985 | 73.40510 | 1197 ft | 160 kts | 257° |
| 2026-05-06 17:34 | 54.97730 | 73.38640 | 1006 ft | 157 kts | 257° |
| 2026-05-06 17:35 | 54.97475 | 73.36785 | 769 ft | 160 kts | 257° |
| 2026-05-06 17:35 | 54.97231 | 73.34868 | 549 ft | 164 kts | 257° |
| 2026-05-06 17:35 | 54.96969 | 73.32955 | 361 ft | 162 kts | 256° |
| 2026-05-06 17:36 | 54.96611 | 73.30272 | 314 ft | 89 kts | 257° |
| 2026-05-06 17:36 | 54.96527 | 73.29647 | 318 ft | 19 kts | 256° |
| 2026-05-06 17:36 | 54.96496 | 73.29412 | 320 ft | 23 kts | 257° |
| 2026-05-06 17:36 | 54.96466 | 73.29204 | 320 ft | 18 kts | 254° |
| 2026-05-06 17:37 | 54.96362 | 73.29181 | 320 ft | 21 kts | 168° |
| 2026-05-06 17:37 | 54.96217 | 73.29235 | 320 ft | 15 kts | 167° |
| 2026-05-06 17:37 | 54.96186 | 73.29248 | 320 ft | 2 kts | 167° |
| 2026-05-06 17:37 | 54.96132 | 73.29268 | 320 ft | 9 kts | 169° |
| 2026-05-06 17:38 | 54.96083 | 73.29389 | 320 ft | 15 kts | 77° |
| 2026-05-06 17:38 | 54.96113 | 73.29588 | 319 ft | 20 kts | 75° |
| 2026-05-06 17:38 | 54.96149 | 73.29880 | 318 ft | 25 kts | 77° |
| 2026-05-06 17:38 | 54.96187 | 73.30160 | 317 ft | 23 kts | 77° |
| 2026-05-06 17:39 | 54.96221 | 73.30427 | 315 ft | 22 kts | 77° |
| 2026-05-06 17:39 | 54.96256 | 73.30686 | 314 ft | 22 kts | 77° |
| 2026-05-06 17:39 | 54.96290 | 73.30939 | 312 ft | 21 kts | 78° |
| 2026-05-06 17:39 | 54.96323 | 73.31184 | 311 ft | 20 kts | 76° |
| 2026-05-06 17:40 | 54.96357 | 73.31420 | 309 ft | 20 kts | 78° |
| 2026-05-06 17:40 | 54.96364 | 73.31627 | 308 ft | 15 kts | 118° |
| 2026-05-06 17:40 | 54.96295 | 73.31764 | 308 ft | 15 kts | 102° |
| 2026-05-06 17:40 | 54.96350 | 73.31906 | 308 ft | 14 kts | 46° |
| 2026-05-06 17:41 | 54.96371 | 73.32017 | 306 ft | 5 kts | 123° |
| 2026-05-06 17:41 | 54.96360 | 73.32037 | 306 ft | 3 kts | 136° |
| 2026-05-06 17:41 | 54.96356 | 73.32044 | 306 ft | 0 kts | 136° |